sensor_id;sensor_type;location;lat;lon;timestamp;P1;durP1;ratioP1;P2;durP2;ratioP2
23123;SDS011;11731;48.592;8.858;2023-08-30T00:00:25;8.10;;;6.97;;
23123;SDS011;11731;48.592;8.858;2023-08-30T00:02:54;8.80;;;7.00;;
23123;SDS011;11731;48.592;8.858;2023-08-30T00:05:21;9.00;;;8.10;;
23123;SDS011;11731;48.592;8.858;2023-08-30T00:07:47;8.63;;;7.73;;
23123;SDS011;11731;48.592;8.858;2023-08-30T00:10:15;8.90;;;7.73;;
23123;SDS011;11731;48.592;8.858;2023-08-30T00:12:42;9.93;;;8.53;;
23123;SDS011;11731;48.592;8.858;2023-08-30T00:15:09;10.03;;;8.93;;
23123;SDS011;11731;48.592;8.858;2023-08-30T00:18:10;9.60;;;8.50;;
23123;SDS011;11731;48.592;8.858;2023-08-30T00:20:42;11.37;;;10.23;;
23123;SDS011;11731;48.592;8.858;2023-08-30T00:23:09;12.30;;;9.73;;
23123;SDS011;11731;48.592;8.858;2023-08-30T00:25:36;10.50;;;9.37;;
23123;SDS011;11731;48.592;8.858;2023-08-30T00:28:03;14.43;;;10.27;;
23123;SDS011;11731;48.592;8.858;2023-08-30T00:30:31;13.47;;;11.03;;
23123;SDS011;11731;48.592;8.858;2023-08-30T00:32:58;12.10;;;10.07;;
23123;SDS011;11731;48.592;8.858;2023-08-30T00:35:26;11.63;;;10.43;;
23123;SDS011;11731;48.592;8.858;2023-08-30T00:37:53;16.80;;;9.77;;
23123;SDS011;11731;48.592;8.858;2023-08-30T00:40:22;10.97;;;9.80;;
23123;SDS011;11731;48.592;8.858;2023-08-30T00:42:49;10.97;;;9.37;;
23123;SDS011;11731;48.592;8.858;2023-08-30T00:45:16;11.33;;;9.93;;
23123;SDS011;11731;48.592;8.858;2023-08-30T00:47:43;11.20;;;10.00;;
23123;SDS011;11731;48.592;8.858;2023-08-30T00:50:10;11.13;;;9.93;;
23123;SDS011;11731;48.592;8.858;2023-08-30T00:52:39;10.40;;;9.30;;
23123;SDS011;11731;48.592;8.858;2023-08-30T00:55:07;11.10;;;9.83;;
23123;SDS011;11731;48.592;8.858;2023-08-30T00:57:35;10.30;;;9.23;;
23123;SDS011;11731;48.592;8.858;2023-08-30T01:00:05;14.23;;;9.80;;
23123;SDS011;11731;48.592;8.858;2023-08-30T01:02:33;10.00;;;9.00;;
23123;SDS011;11731;48.592;8.858;2023-08-30T01:05:01;11.80;;;9.70;;
23123;SDS011;11731;48.592;8.858;2023-08-30T01:07:28;10.57;;;9.03;;
23123;SDS011;11731;48.592;8.858;2023-08-30T01:09:56;12.03;;;9.93;;
23123;SDS011;11731;48.592;8.858;2023-08-30T01:12:25;10.80;;;9.43;;
23123;SDS011;11731;48.592;8.858;2023-08-30T01:14:59;9.80;;;8.83;;
23123;SDS011;11731;48.592;8.858;2023-08-30T01:17:32;10.80;;;9.70;;
23123;SDS011;11731;48.592;8.858;2023-08-30T01:20:04;11.47;;;9.83;;
23123;SDS011;11731;48.592;8.858;2023-08-30T01:22:39;11.77;;;10.00;;
23123;SDS011;11731;48.592;8.858;2023-08-30T01:25:30;11.50;;;9.53;;
23123;SDS011;11731;48.592;8.858;2023-08-30T01:28:05;11.97;;;9.40;;
23123;SDS011;11731;48.592;8.858;2023-08-30T01:30:33;11.90;;;9.93;;
23123;SDS011;11731;48.592;8.858;2023-08-30T01:33:03;10.60;;;9.50;;
23123;SDS011;11731;48.592;8.858;2023-08-30T01:35:32;12.37;;;10.13;;
23123;SDS011;11731;48.592;8.858;2023-08-30T01:38:02;14.07;;;10.37;;
23123;SDS011;11731;48.592;8.858;2023-08-30T01:40:32;10.67;;;9.57;;
23123;SDS011;11731;48.592;8.858;2023-08-30T01:43:01;11.63;;;10.30;;
23123;SDS011;11731;48.592;8.858;2023-08-30T01:45:32;12.20;;;9.80;;
23123;SDS011;11731;48.592;8.858;2023-08-30T01:48:01;11.03;;;9.93;;
23123;SDS011;11731;48.592;8.858;2023-08-30T01:50:30;11.33;;;10.17;;
23123;SDS011;11731;48.592;8.858;2023-08-30T01:52:58;12.10;;;10.80;;
23123;SDS011;11731;48.592;8.858;2023-08-30T01:55:26;14.07;;;11.20;;
23123;SDS011;11731;48.592;8.858;2023-08-30T01:57:55;12.33;;;10.70;;
23123;SDS011;11731;48.592;8.858;2023-08-30T02:00:22;14.70;;;10.13;;
23123;SDS011;11731;48.592;8.858;2023-08-30T02:02:50;13.10;;;10.30;;
23123;SDS011;11731;48.592;8.858;2023-08-30T02:05:17;12.73;;;10.40;;
23123;SDS011;11731;48.592;8.858;2023-08-30T02:07:47;14.00;;;11.33;;
23123;SDS011;11731;48.592;8.858;2023-08-30T02:10:21;15.13;;;10.43;;
23123;SDS011;11731;48.592;8.858;2023-08-30T02:12:49;12.67;;;10.57;;
23123;SDS011;11731;48.592;8.858;2023-08-30T02:15:18;15.67;;;10.77;;
23123;SDS011;11731;48.592;8.858;2023-08-30T02:17:47;13.97;;;11.63;;
23123;SDS011;11731;48.592;8.858;2023-08-30T02:20:16;12.27;;;10.97;;
23123;SDS011;11731;48.592;8.858;2023-08-30T02:22:43;12.87;;;10.97;;
23123;SDS011;11731;48.592;8.858;2023-08-30T02:25:10;12.87;;;10.70;;
23123;SDS011;11731;48.592;8.858;2023-08-30T02:27:37;12.93;;;10.90;;
23123;SDS011;11731;48.592;8.858;2023-08-30T02:30:03;13.60;;;11.33;;
23123;SDS011;11731;48.592;8.858;2023-08-30T02:32:31;13.93;;;11.17;;
23123;SDS011;11731;48.592;8.858;2023-08-30T02:34:58;14.90;;;12.00;;
23123;SDS011;11731;48.592;8.858;2023-08-30T02:37:26;13.57;;;11.10;;
23123;SDS011;11731;48.592;8.858;2023-08-30T02:39:53;11.50;;;10.27;;
23123;SDS011;11731;48.592;8.858;2023-08-30T02:42:19;14.13;;;11.00;;
23123;SDS011;11731;48.592;8.858;2023-08-30T02:44:46;14.43;;;11.73;;
23123;SDS011;11731;48.592;8.858;2023-08-30T02:47:13;12.57;;;10.67;;
23123;SDS011;11731;48.592;8.858;2023-08-30T02:49:40;12.97;;;10.10;;
23123;SDS011;11731;48.592;8.858;2023-08-30T02:52:07;12.50;;;10.43;;
23123;SDS011;11731;48.592;8.858;2023-08-30T02:54:35;13.23;;;10.07;;
23123;SDS011;11731;48.592;8.858;2023-08-30T02:57:02;14.43;;;10.70;;
23123;SDS011;11731;48.592;8.858;2023-08-30T02:59:29;13.77;;;10.80;;
23123;SDS011;11731;48.592;8.858;2023-08-30T03:01:56;15.20;;;11.27;;
23123;SDS011;11731;48.592;8.858;2023-08-30T03:04:23;14.30;;;10.90;;
23123;SDS011;11731;48.592;8.858;2023-08-30T03:06:50;15.67;;;11.67;;
23123;SDS011;11731;48.592;8.858;2023-08-30T03:09:17;16.10;;;11.70;;
23123;SDS011;11731;48.592;8.858;2023-08-30T03:11:45;12.40;;;11.10;;
23123;SDS011;11731;48.592;8.858;2023-08-30T03:14:12;12.67;;;10.53;;
23123;SDS011;11731;48.592;8.858;2023-08-30T03:16:40;13.70;;;11.07;;
23123;SDS011;11731;48.592;8.858;2023-08-30T03:19:08;13.27;;;10.57;;
23123;SDS011;11731;48.592;8.858;2023-08-30T03:21:34;12.20;;;10.57;;
23123;SDS011;11731;48.592;8.858;2023-08-30T03:24:03;16.00;;;10.60;;
23123;SDS011;11731;48.592;8.858;2023-08-30T03:26:39;12.97;;;10.87;;
23123;SDS011;11731;48.592;8.858;2023-08-30T03:29:08;12.33;;;10.63;;
23123;SDS011;11731;48.592;8.858;2023-08-30T03:31:37;14.03;;;10.43;;
23123;SDS011;11731;48.592;8.858;2023-08-30T03:34:07;12.30;;;10.10;;
23123;SDS011;11731;48.592;8.858;2023-08-30T03:36:34;11.80;;;9.97;;
23123;SDS011;11731;48.592;8.858;2023-08-30T03:39:01;13.33;;;10.23;;
23123;SDS011;11731;48.592;8.858;2023-08-30T03:41:28;12.40;;;9.47;;
23123;SDS011;11731;48.592;8.858;2023-08-30T03:44:00;13.67;;;10.33;;
23123;SDS011;11731;48.592;8.858;2023-08-30T03:46:28;12.03;;;9.53;;
23123;SDS011;11731;48.592;8.858;2023-08-30T03:48:57;11.97;;;10.23;;
23123;SDS011;11731;48.592;8.858;2023-08-30T03:51:24;11.07;;;9.07;;
23123;SDS011;11731;48.592;8.858;2023-08-30T03:53:51;11.40;;;10.23;;
23123;SDS011;11731;48.592;8.858;2023-08-30T03:56:17;11.67;;;9.70;;
23123;SDS011;11731;48.592;8.858;2023-08-30T03:58:44;12.60;;;9.53;;
23123;SDS011;11731;48.592;8.858;2023-08-30T04:04:01;11.50;;;9.03;;
23123;SDS011;11731;48.592;8.858;2023-08-30T04:06:28;10.23;;;8.73;;
23123;SDS011;11731;48.592;8.858;2023-08-30T04:08:55;9.80;;;8.33;;
23123;SDS011;11731;48.592;8.858;2023-08-30T04:11:22;10.87;;;9.10;;
23123;SDS011;11731;48.592;8.858;2023-08-30T04:13:49;10.73;;;9.63;;
23123;SDS011;11731;48.592;8.858;2023-08-30T04:16:17;10.43;;;9.17;;
23123;SDS011;11731;48.592;8.858;2023-08-30T04:18:44;10.23;;;8.17;;
23123;SDS011;11731;48.592;8.858;2023-08-30T04:21:12;10.00;;;8.73;;
23123;SDS011;11731;48.592;8.858;2023-08-30T04:23:39;9.67;;;8.67;;
23123;SDS011;11731;48.592;8.858;2023-08-30T04:26:06;11.10;;;9.27;;
23123;SDS011;11731;48.592;8.858;2023-08-30T04:28:33;10.23;;;8.20;;
23123;SDS011;11731;48.592;8.858;2023-08-30T04:30:59;8.97;;;7.80;;
23123;SDS011;11731;48.592;8.858;2023-08-30T04:33:26;9.50;;;8.40;;
23123;SDS011;11731;48.592;8.858;2023-08-30T04:35:53;9.40;;;8.43;;
23123;SDS011;11731;48.592;8.858;2023-08-30T04:38:22;10.23;;;8.53;;
23123;SDS011;11731;48.592;8.858;2023-08-30T04:40:49;11.17;;;9.17;;
23123;SDS011;11731;48.592;8.858;2023-08-30T04:43:16;9.73;;;8.23;;
23123;SDS011;11731;48.592;8.858;2023-08-30T04:45:43;8.90;;;7.97;;
23123;SDS011;11731;48.592;8.858;2023-08-30T04:48:13;9.13;;;7.27;;
23123;SDS011;11731;48.592;8.858;2023-08-30T04:50:40;10.53;;;7.93;;
23123;SDS011;11731;48.592;8.858;2023-08-30T04:53:07;8.43;;;7.53;;
23123;SDS011;11731;48.592;8.858;2023-08-30T04:55:35;8.40;;;7.33;;
23123;SDS011;11731;48.592;8.858;2023-08-30T04:58:02;8.83;;;7.37;;
23123;SDS011;11731;48.592;8.858;2023-08-30T05:00:29;11.27;;;7.80;;
23123;SDS011;11731;48.592;8.858;2023-08-30T05:02:56;10.30;;;8.80;;
23123;SDS011;11731;48.592;8.858;2023-08-30T05:05:23;9.63;;;8.07;;
23123;SDS011;11731;48.592;8.858;2023-08-30T05:07:50;10.47;;;8.73;;
23123;SDS011;11731;48.592;8.858;2023-08-30T05:10:17;11.40;;;8.93;;
23123;SDS011;11731;48.592;8.858;2023-08-30T05:12:45;12.40;;;9.87;;
23123;SDS011;11731;48.592;8.858;2023-08-30T05:15:16;12.83;;;10.53;;
23123;SDS011;11731;48.592;8.858;2023-08-30T05:17:43;12.87;;;9.50;;
23123;SDS011;11731;48.592;8.858;2023-08-30T05:20:10;14.20;;;10.97;;
23123;SDS011;11731;48.592;8.858;2023-08-30T05:22:38;13.30;;;10.53;;
23123;SDS011;11731;48.592;8.858;2023-08-30T05:25:05;12.43;;;10.23;;
23123;SDS011;11731;48.592;8.858;2023-08-30T05:27:32;15.87;;;11.27;;
23123;SDS011;11731;48.592;8.858;2023-08-30T05:30:00;15.17;;;11.83;;
23123;SDS011;11731;48.592;8.858;2023-08-30T05:32:28;18.77;;;11.53;;
23123;SDS011;11731;48.592;8.858;2023-08-30T05:35:10;15.60;;;12.07;;
23123;SDS011;11731;48.592;8.858;2023-08-30T05:37:37;15.47;;;12.60;;
23123;SDS011;11731;48.592;8.858;2023-08-30T05:40:05;17.17;;;11.83;;
23123;SDS011;11731;48.592;8.858;2023-08-30T05:42:33;15.17;;;11.40;;
23123;SDS011;11731;48.592;8.858;2023-08-30T05:45:01;15.17;;;11.53;;
23123;SDS011;11731;48.592;8.858;2023-08-30T05:47:28;14.00;;;10.60;;
23123;SDS011;11731;48.592;8.858;2023-08-30T05:49:55;16.17;;;11.33;;
23123;SDS011;11731;48.592;8.858;2023-08-30T05:52:23;13.20;;;10.83;;
23123;SDS011;11731;48.592;8.858;2023-08-30T05:54:51;15.43;;;10.17;;
23123;SDS011;11731;48.592;8.858;2023-08-30T05:57:18;12.83;;;10.20;;
23123;SDS011;11731;48.592;8.858;2023-08-30T05:59:47;12.07;;;9.80;;
23123;SDS011;11731;48.592;8.858;2023-08-30T06:02:15;12.27;;;10.00;;
23123;SDS011;11731;48.592;8.858;2023-08-30T06:04:42;12.17;;;9.60;;
23123;SDS011;11731;48.592;8.858;2023-08-30T06:07:09;12.87;;;10.20;;
23123;SDS011;11731;48.592;8.858;2023-08-30T06:09:36;13.20;;;10.40;;
23123;SDS011;11731;48.592;8.858;2023-08-30T06:12:03;12.53;;;10.20;;
23123;SDS011;11731;48.592;8.858;2023-08-30T06:14:30;12.00;;;10.10;;
23123;SDS011;11731;48.592;8.858;2023-08-30T06:16:57;11.97;;;9.50;;
23123;SDS011;11731;48.592;8.858;2023-08-30T06:19:25;12.47;;;10.63;;
23123;SDS011;11731;48.592;8.858;2023-08-30T06:21:52;12.37;;;9.57;;
23123;SDS011;11731;48.592;8.858;2023-08-30T06:24:19;10.60;;;9.57;;
23123;SDS011;11731;48.592;8.858;2023-08-30T06:26:46;11.80;;;8.80;;
23123;SDS011;11731;48.592;8.858;2023-08-30T06:29:13;10.60;;;9.50;;
23123;SDS011;11731;48.592;8.858;2023-08-30T06:31:40;9.33;;;7.97;;
23123;SDS011;11731;48.592;8.858;2023-08-30T06:34:07;9.07;;;8.10;;
23123;SDS011;11731;48.592;8.858;2023-08-30T06:36:35;8.60;;;7.70;;
23123;SDS011;11731;48.592;8.858;2023-08-30T06:39:02;9.77;;;7.80;;
23123;SDS011;11731;48.592;8.858;2023-08-30T06:41:29;10.10;;;8.00;;
23123;SDS011;11731;48.592;8.858;2023-08-30T06:43:56;9.53;;;7.87;;
23123;SDS011;11731;48.592;8.858;2023-08-30T06:46:23;8.40;;;7.43;;
23123;SDS011;11731;48.592;8.858;2023-08-30T06:48:50;11.27;;;8.23;;
23123;SDS011;11731;48.592;8.858;2023-08-30T06:51:17;9.13;;;7.70;;
23123;SDS011;11731;48.592;8.858;2023-08-30T06:53:46;9.07;;;7.57;;
23123;SDS011;11731;48.592;8.858;2023-08-30T06:56:20;8.30;;;7.40;;
23123;SDS011;11731;48.592;8.858;2023-08-30T06:58:47;9.77;;;6.97;;
23123;SDS011;11731;48.592;8.858;2023-08-30T07:01:16;7.10;;;6.40;;
23123;SDS011;11731;48.592;8.858;2023-08-30T07:03:43;6.47;;;5.87;;
23123;SDS011;11731;48.592;8.858;2023-08-30T07:06:10;8.30;;;5.40;;
23123;SDS011;11731;48.592;8.858;2023-08-30T07:08:37;5.73;;;5.13;;
23123;SDS011;11731;48.592;8.858;2023-08-30T07:11:06;6.67;;;5.43;;
23123;SDS011;11731;48.592;8.858;2023-08-30T07:13:33;5.87;;;5.37;;
23123;SDS011;11731;48.592;8.858;2023-08-30T07:16:02;5.67;;;5.00;;
23123;SDS011;11731;48.592;8.858;2023-08-30T07:18:29;6.07;;;5.43;;
23123;SDS011;11731;48.592;8.858;2023-08-30T07:20:56;6.30;;;5.70;;
23123;SDS011;11731;48.592;8.858;2023-08-30T07:23:23;5.63;;;5.10;;
23123;SDS011;11731;48.592;8.858;2023-08-30T07:25:51;5.57;;;5.03;;
23123;SDS011;11731;48.592;8.858;2023-08-30T07:28:19;5.63;;;5.13;;
23123;SDS011;11731;48.592;8.858;2023-08-30T07:30:46;4.87;;;4.40;;
23123;SDS011;11731;48.592;8.858;2023-08-30T07:33:12;6.73;;;4.60;;
23123;SDS011;11731;48.592;8.858;2023-08-30T07:35:39;4.70;;;4.30;;
23123;SDS011;11731;48.592;8.858;2023-08-30T07:38:06;5.30;;;4.80;;
23123;SDS011;11731;48.592;8.858;2023-08-30T07:40:33;5.37;;;4.00;;
23123;SDS011;11731;48.592;8.858;2023-08-30T07:43:00;5.10;;;4.60;;
23123;SDS011;11731;48.592;8.858;2023-08-30T07:45:28;4.97;;;4.47;;
23123;SDS011;11731;48.592;8.858;2023-08-30T07:47:55;5.20;;;4.70;;
23123;SDS011;11731;48.592;8.858;2023-08-30T07:50:23;4.90;;;4.40;;
23123;SDS011;11731;48.592;8.858;2023-08-30T07:52:50;7.70;;;4.33;;
23123;SDS011;11731;48.592;8.858;2023-08-30T07:55:17;7.33;;;4.50;;
23123;SDS011;11731;48.592;8.858;2023-08-30T07:57:44;4.30;;;3.90;;
23123;SDS011;11731;48.592;8.858;2023-08-30T08:00:11;5.50;;;3.83;;
23123;SDS011;11731;48.592;8.858;2023-08-30T08:02:40;5.60;;;3.80;;
23123;SDS011;11731;48.592;8.858;2023-08-30T08:05:07;4.70;;;4.00;;
23123;SDS011;11731;48.592;8.858;2023-08-30T08:07:35;4.07;;;3.47;;
23123;SDS011;11731;48.592;8.858;2023-08-30T08:10:04;3.97;;;3.57;;
23123;SDS011;11731;48.592;8.858;2023-08-30T08:12:32;4.83;;;4.20;;
23123;SDS011;11731;48.592;8.858;2023-08-30T08:14:59;4.10;;;3.70;;
23123;SDS011;11731;48.592;8.858;2023-08-30T08:17:26;7.00;;;3.60;;
23123;SDS011;11731;48.592;8.858;2023-08-30T08:19:54;4.60;;;3.77;;
23123;SDS011;11731;48.592;8.858;2023-08-30T08:22:21;3.27;;;3.03;;
23123;SDS011;11731;48.592;8.858;2023-08-30T08:24:48;3.50;;;3.20;;
23123;SDS011;11731;48.592;8.858;2023-08-30T08:27:16;3.57;;;3.27;;
23123;SDS011;11731;48.592;8.858;2023-08-30T08:29:43;3.93;;;3.43;;
23123;SDS011;11731;48.592;8.858;2023-08-30T08:32:10;3.10;;;2.90;;
23123;SDS011;11731;48.592;8.858;2023-08-30T08:34:37;3.30;;;2.90;;
23123;SDS011;11731;48.592;8.858;2023-08-30T08:37:05;3.20;;;2.90;;
23123;SDS011;11731;48.592;8.858;2023-08-30T08:39:33;3.03;;;2.83;;
23123;SDS011;11731;48.592;8.858;2023-08-30T08:42:01;3.57;;;3.27;;
23123;SDS011;11731;48.592;8.858;2023-08-30T08:44:31;3.43;;;3.13;;
23123;SDS011;11731;48.592;8.858;2023-08-30T08:46:58;3.17;;;2.87;;
23123;SDS011;11731;48.592;8.858;2023-08-30T08:49:28;3.20;;;2.90;;
23123;SDS011;11731;48.592;8.858;2023-08-30T08:51:56;3.23;;;2.83;;
23123;SDS011;11731;48.592;8.858;2023-08-30T08:54:29;3.30;;;2.93;;
23123;SDS011;11731;48.592;8.858;2023-08-30T08:56:57;5.23;;;3.70;;
23123;SDS011;11731;48.592;8.858;2023-08-30T08:59:24;3.30;;;3.00;;
23123;SDS011;11731;48.592;8.858;2023-08-30T09:01:51;3.43;;;3.13;;
23123;SDS011;11731;48.592;8.858;2023-08-30T09:04:20;3.30;;;3.00;;
23123;SDS011;11731;48.592;8.858;2023-08-30T09:06:47;3.30;;;2.93;;
23123;SDS011;11731;48.592;8.858;2023-08-30T09:09:14;3.53;;;3.23;;
23123;SDS011;11731;48.592;8.858;2023-08-30T09:11:43;3.30;;;3.00;;
23123;SDS011;11731;48.592;8.858;2023-08-30T09:14:10;3.10;;;2.80;;
23123;SDS011;11731;48.592;8.858;2023-08-30T09:16:37;4.60;;;2.70;;
23123;SDS011;11731;48.592;8.858;2023-08-30T09:19:05;4.20;;;2.50;;
23123;SDS011;11731;48.592;8.858;2023-08-30T09:21:32;3.23;;;2.40;;
23123;SDS011;11731;48.592;8.858;2023-08-30T09:24:00;2.90;;;2.70;;
23123;SDS011;11731;48.592;8.858;2023-08-30T09:26:30;2.93;;;2.53;;
23123;SDS011;11731;48.592;8.858;2023-08-30T09:29:02;2.93;;;2.73;;
23123;SDS011;11731;48.592;8.858;2023-08-30T09:31:33;3.87;;;2.70;;
23123;SDS011;11731;48.592;8.858;2023-08-30T09:34:01;3.30;;;2.93;;
23123;SDS011;11731;48.592;8.858;2023-08-30T09:36:32;2.60;;;2.40;;
23123;SDS011;11731;48.592;8.858;2023-08-30T09:39:04;3.10;;;2.80;;
23123;SDS011;11731;48.592;8.858;2023-08-30T09:41:34;2.60;;;2.40;;
23123;SDS011;11731;48.592;8.858;2023-08-30T09:44:08;2.83;;;2.63;;
23123;SDS011;11731;48.592;8.858;2023-08-30T09:49:14;3.27;;;2.40;;
23123;SDS011;11731;48.592;8.858;2023-08-30T09:51:41;2.83;;;2.50;;
23123;SDS011;11731;48.592;8.858;2023-08-30T09:54:11;2.70;;;2.50;;
23123;SDS011;11731;48.592;8.858;2023-08-30T09:56:42;2.77;;;2.57;;
23123;SDS011;11731;48.592;8.858;2023-08-30T09:59:11;2.50;;;2.30;;
23123;SDS011;11731;48.592;8.858;2023-08-30T10:01:39;3.20;;;2.90;;
23123;SDS011;11731;48.592;8.858;2023-08-30T10:04:07;3.87;;;2.70;;
23123;SDS011;11731;48.592;8.858;2023-08-30T10:06:35;3.37;;;2.80;;
23123;SDS011;11731;48.592;8.858;2023-08-30T10:09:03;3.77;;;2.50;;
23123;SDS011;11731;48.592;8.858;2023-08-30T10:11:32;2.80;;;2.60;;
23123;SDS011;11731;48.592;8.858;2023-08-30T10:14:01;3.73;;;2.80;;
23123;SDS011;11731;48.592;8.858;2023-08-30T10:16:32;2.90;;;2.47;;
23123;SDS011;11731;48.592;8.858;2023-08-30T10:19:07;3.67;;;2.70;;
23123;SDS011;11731;48.592;8.858;2023-08-30T10:21:37;2.57;;;2.37;;
23123;SDS011;11731;48.592;8.858;2023-08-30T10:24:05;2.57;;;2.37;;
23123;SDS011;11731;48.592;8.858;2023-08-30T10:26:35;3.47;;;2.37;;
23123;SDS011;11731;48.592;8.858;2023-08-30T10:29:04;3.87;;;2.10;;
23123;SDS011;11731;48.592;8.858;2023-08-30T10:31:34;5.73;;;2.03;;
23123;SDS011;11731;48.592;8.858;2023-08-30T10:34:01;3.57;;;2.23;;
23123;SDS011;11731;48.592;8.858;2023-08-30T10:36:38;2.27;;;1.83;;
23123;SDS011;11731;48.592;8.858;2023-08-30T10:39:10;3.20;;;2.10;;
23123;SDS011;11731;48.592;8.858;2023-08-30T10:41:38;2.90;;;2.63;;
23123;SDS011;11731;48.592;8.858;2023-08-30T10:44:20;2.30;;;2.10;;
23123;SDS011;11731;48.592;8.858;2023-08-30T10:46:54;2.37;;;2.17;;
23123;SDS011;11731;48.592;8.858;2023-08-30T10:49:21;2.73;;;2.10;;
23123;SDS011;11731;48.592;8.858;2023-08-30T10:51:55;2.67;;;2.13;;
23123;SDS011;11731;48.592;8.858;2023-08-30T10:54:23;5.03;;;3.43;;
23123;SDS011;11731;48.592;8.858;2023-08-30T10:56:54;3.87;;;2.50;;
23123;SDS011;11731;48.592;8.858;2023-08-30T10:59:24;2.30;;;2.10;;
23123;SDS011;11731;48.592;8.858;2023-08-30T11:01:52;2.40;;;2.20;;
23123;SDS011;11731;48.592;8.858;2023-08-30T11:04:22;2.47;;;1.80;;
23123;SDS011;11731;48.592;8.858;2023-08-30T11:06:50;2.13;;;2.03;;
23123;SDS011;11731;48.592;8.858;2023-08-30T11:09:18;3.47;;;2.10;;
23123;SDS011;11731;48.592;8.858;2023-08-30T11:11:47;2.27;;;1.93;;
23123;SDS011;11731;48.592;8.858;2023-08-30T11:14:15;3.27;;;2.30;;
23123;SDS011;11731;48.592;8.858;2023-08-30T11:16:45;2.83;;;2.07;;
23123;SDS011;11731;48.592;8.858;2023-08-30T11:19:13;2.60;;;2.10;;
23123;SDS011;11731;48.592;8.858;2023-08-30T11:41:58;2.67;;;2.27;;
23123;SDS011;11731;48.592;8.858;2023-08-30T11:45:00;2.67;;;2.47;;
23123;SDS011;11731;48.592;8.858;2023-08-30T11:47:28;2.33;;;1.97;;
23123;SDS011;11731;48.592;8.858;2023-08-30T11:56:19;4.60;;;2.80;;
23123;SDS011;11731;48.592;8.858;2023-08-30T11:58:49;3.37;;;2.97;;
23123;SDS011;11731;48.592;8.858;2023-08-30T12:01:17;3.40;;;3.07;;
23123;SDS011;11731;48.592;8.858;2023-08-30T12:03:47;4.93;;;3.23;;
23123;SDS011;11731;48.592;8.858;2023-08-30T12:06:17;3.20;;;2.80;;
23123;SDS011;11731;48.592;8.858;2023-08-30T12:08:44;3.30;;;3.00;;
23123;SDS011;11731;48.592;8.858;2023-08-30T12:11:18;3.10;;;2.80;;
23123;SDS011;11731;48.592;8.858;2023-08-30T12:13:50;2.97;;;2.67;;
23123;SDS011;11731;48.592;8.858;2023-08-30T12:16:17;2.63;;;2.43;;
23123;SDS011;11731;48.592;8.858;2023-08-30T12:18:45;2.60;;;2.40;;
23123;SDS011;11731;48.592;8.858;2023-08-30T12:21:13;2.93;;;2.67;;
23123;SDS011;11731;48.592;8.858;2023-08-30T12:23:46;3.57;;;2.43;;
23123;SDS011;11731;48.592;8.858;2023-08-30T12:26:13;3.60;;;3.10;;
23123;SDS011;11731;48.592;8.858;2023-08-30T12:28:44;2.87;;;2.20;;
23123;SDS011;11731;48.592;8.858;2023-08-30T12:31:13;3.47;;;2.23;;
23123;SDS011;11731;48.592;8.858;2023-08-30T12:33:40;2.73;;;2.47;;
23123;SDS011;11731;48.592;8.858;2023-08-30T12:36:09;2.50;;;2.30;;
23123;SDS011;11731;48.592;8.858;2023-08-30T12:38:36;3.23;;;2.07;;
23123;SDS011;11731;48.592;8.858;2023-08-30T12:41:03;2.60;;;2.00;;
23123;SDS011;11731;48.592;8.858;2023-08-30T12:43:30;2.53;;;2.20;;
23123;SDS011;11731;48.592;8.858;2023-08-30T12:45:57;2.37;;;2.17;;
23123;SDS011;11731;48.592;8.858;2023-08-30T12:48:26;2.43;;;2.20;;
23123;SDS011;11731;48.592;8.858;2023-08-30T12:50:53;3.57;;;1.80;;
23123;SDS011;11731;48.592;8.858;2023-08-30T12:53:23;2.13;;;1.93;;
23123;SDS011;11731;48.592;8.858;2023-08-30T12:55:59;2.47;;;1.87;;
23123;SDS011;11731;48.592;8.858;2023-08-30T12:58:30;2.50;;;1.97;;
23123;SDS011;11731;48.592;8.858;2023-08-30T13:01:00;1.83;;;1.70;;
23123;SDS011;11731;48.592;8.858;2023-08-30T13:03:31;2.30;;;2.10;;
23123;SDS011;11731;48.592;8.858;2023-08-30T13:06:04;1.93;;;1.83;;
23123;SDS011;11731;48.592;8.858;2023-08-30T13:08:34;4.30;;;1.83;;
23123;SDS011;11731;48.592;8.858;2023-08-30T13:11:07;2.33;;;1.87;;
23123;SDS011;11731;48.592;8.858;2023-08-30T13:13:47;2.63;;;1.97;;
23123;SDS011;11731;48.592;8.858;2023-08-30T13:16:17;2.43;;;2.13;;
23123;SDS011;11731;48.592;8.858;2023-08-30T13:18:56;1.97;;;1.77;;
23123;SDS011;11731;48.592;8.858;2023-08-30T13:27:50;2.00;;;1.90;;
23123;SDS011;11731;48.592;8.858;2023-08-30T13:31:09;3.13;;;2.00;;
23123;SDS011;11731;48.592;8.858;2023-08-30T13:46:57;2.10;;;1.80;;
23123;SDS011;11731;48.592;8.858;2023-08-30T14:06:36;1.97;;;1.83;;
23123;SDS011;11731;48.592;8.858;2023-08-30T14:09:32;2.43;;;1.77;;
23123;SDS011;11731;48.592;8.858;2023-08-30T14:25:39;1.50;;;1.40;;
23123;SDS011;11731;48.592;8.858;2023-08-30T14:29:04;1.67;;;1.57;;
23123;SDS011;11731;48.592;8.858;2023-08-30T18:32:01;2.20;;;2.00;;
23123;SDS011;11731;48.592;8.858;2023-08-30T18:34:25;2.90;;;2.17;;
23123;SDS011;11731;48.592;8.858;2023-08-30T18:43:53;2.40;;;2.20;;
23123;SDS011;11731;48.592;8.858;2023-08-30T18:46:27;5.93;;;2.27;;
23123;SDS011;11731;48.592;8.858;2023-08-30T18:48:54;2.33;;;2.13;;
23123;SDS011;11731;48.592;8.858;2023-08-30T18:51:21;6.47;;;2.77;;
23123;SDS011;11731;48.592;8.858;2023-08-30T18:53:49;2.20;;;1.90;;
23123;SDS011;11731;48.592;8.858;2023-08-30T18:56:18;2.37;;;2.17;;
23123;SDS011;11731;48.592;8.858;2023-08-30T18:58:53;2.40;;;2.20;;
23123;SDS011;11731;48.592;8.858;2023-08-30T19:01:20;3.13;;;2.50;;
23123;SDS011;11731;48.592;8.858;2023-08-30T19:03:46;2.87;;;2.40;;
23123;SDS011;11731;48.592;8.858;2023-08-30T19:06:15;2.30;;;2.10;;
23123;SDS011;11731;48.592;8.858;2023-08-30T19:08:42;3.93;;;2.30;;
23123;SDS011;11731;48.592;8.858;2023-08-30T19:11:09;4.77;;;2.20;;
23123;SDS011;11731;48.592;8.858;2023-08-30T19:13:38;2.30;;;2.10;;
23123;SDS011;11731;48.592;8.858;2023-08-30T19:16:06;2.47;;;2.27;;
23123;SDS011;11731;48.592;8.858;2023-08-30T19:18:47;2.30;;;2.10;;
23123;SDS011;11731;48.592;8.858;2023-08-30T19:21:16;2.80;;;2.10;;
23123;SDS011;11731;48.592;8.858;2023-08-30T19:23:44;2.70;;;2.47;;
23123;SDS011;11731;48.592;8.858;2023-08-30T19:26:13;11.50;;;2.83;;
23123;SDS011;11731;48.592;8.858;2023-08-30T19:28:41;2.40;;;2.20;;
23123;SDS011;11731;48.592;8.858;2023-08-30T19:31:09;2.60;;;2.40;;
23123;SDS011;11731;48.592;8.858;2023-08-30T19:33:36;4.00;;;2.20;;
23123;SDS011;11731;48.592;8.858;2023-08-30T19:36:03;2.30;;;2.10;;
23123;SDS011;11731;48.592;8.858;2023-08-30T19:38:31;3.20;;;2.23;;
23123;SDS011;11731;48.592;8.858;2023-08-30T19:40:58;2.70;;;2.50;;
23123;SDS011;11731;48.592;8.858;2023-08-30T19:43:25;3.07;;;2.27;;
23123;SDS011;11731;48.592;8.858;2023-08-30T19:45:58;2.53;;;2.33;;
23123;SDS011;11731;48.592;8.858;2023-08-30T19:48:27;2.67;;;2.27;;
23123;SDS011;11731;48.592;8.858;2023-08-30T19:50:54;3.47;;;2.40;;
23123;SDS011;11731;48.592;8.858;2023-08-30T19:53:22;2.73;;;2.30;;
23123;SDS011;11731;48.592;8.858;2023-08-30T19:55:49;3.13;;;2.40;;
23123;SDS011;11731;48.592;8.858;2023-08-30T19:58:17;2.67;;;2.07;;
23123;SDS011;11731;48.592;8.858;2023-08-30T20:04:06;2.40;;;2.20;;
23123;SDS011;11731;48.592;8.858;2023-08-30T20:06:33;3.23;;;2.33;;
23123;SDS011;11731;48.592;8.858;2023-08-30T20:09:00;2.80;;;2.13;;
23123;SDS011;11731;48.592;8.858;2023-08-30T20:11:28;4.17;;;2.00;;
23123;SDS011;11731;48.592;8.858;2023-08-30T20:14:05;2.47;;;2.00;;
23123;SDS011;11731;48.592;8.858;2023-08-30T20:16:32;2.30;;;2.10;;
23123;SDS011;11731;48.592;8.858;2023-08-30T20:19:18;2.33;;;1.90;;
23123;SDS011;11731;48.592;8.858;2023-08-30T20:22:21;3.00;;;2.00;;
23123;SDS011;11731;48.592;8.858;2023-08-30T20:24:39;2.43;;;2.10;;